createdAt,value
2018-05-14T00:00:00.222Z,6.00
2018-05-14T00:02:27.920Z,6.43
2018-05-14T00:04:56.164Z,5.10
2018-05-14T00:07:23.659Z,4.30
2018-05-14T00:09:52.193Z,3.17
2018-05-14T00:12:19.689Z,4.47
2018-05-14T00:14:47.987Z,3.93
2018-05-14T00:17:16.288Z,4.93
2018-05-14T00:19:43.816Z,3.40
2018-05-14T00:22:12.095Z,3.20
2018-05-14T00:24:40.347Z,3.93
2018-05-14T00:27:09.340Z,4.77
2018-05-14T00:29:36.920Z,4.50
2018-05-14T00:32:05.164Z,4.70
2018-05-14T00:34:32.639Z,3.70
2018-05-14T00:37:00.131Z,5.10
2018-05-14T00:39:27.672Z,3.37
2018-05-14T00:41:55.933Z,3.43
2018-05-14T00:44:23.652Z,5.27
2018-05-14T00:46:51.163Z,4.37
2018-05-14T00:49:19.508Z,5.40
2018-05-14T00:51:47.274Z,4.20
2018-05-14T00:54:15.854Z,4.77
2018-05-14T00:56:44.078Z,4.27
2018-05-14T00:59:13.522Z,3.70
2018-05-14T01:01:40.996Z,4.03
2018-05-14T01:04:08.483Z,4.73
2018-05-14T01:06:36.799Z,4.07
2018-05-14T01:09:04.224Z,3.90
2018-05-14T01:11:32.579Z,3.27
2018-05-14T01:14:00.300Z,4.10
2018-05-14T01:16:28.071Z,4.60
2018-05-14T01:18:55.927Z,5.00
2018-05-14T01:21:23.692Z,3.77
2018-05-14T01:23:51.163Z,3.80
2018-05-14T01:26:18.636Z,4.53
2018-05-14T01:28:46.746Z,6.20
2018-05-14T01:31:14.240Z,4.40
2018-05-14T01:33:41.732Z,4.10
2018-05-14T01:36:09.213Z,5.80
2018-05-14T01:38:37.732Z,4.37
2018-05-14T01:41:05.435Z,3.70
2018-05-14T01:43:34.415Z,3.80
2018-05-14T01:46:01.916Z,3.63
2018-05-14T01:48:30.159Z,5.67
2018-05-14T01:50:59.190Z,3.50
2018-05-14T01:53:27.416Z,3.70
2018-05-14T01:55:54.891Z,5.77
2018-05-14T01:58:22.460Z,3.93
2018-05-14T02:00:50.706Z,4.60
2018-05-14T02:03:18.205Z,5.17
2018-05-14T02:05:46.452Z,3.57
2018-05-14T02:08:13.931Z,4.37
2018-05-14T02:10:42.187Z,6.00
2018-05-14T02:13:10.288Z,4.07
2018-05-14T02:15:38.079Z,3.50
2018-05-14T02:18:05.596Z,4.30
2018-05-14T02:20:34.121Z,5.07
2018-05-14T02:23:01.624Z,4.93
2018-05-14T02:25:29.823Z,5.57
2018-05-14T02:27:58.335Z,4.40
2018-05-14T02:30:26.097Z,5.40
2018-05-14T02:32:53.616Z,5.63
2018-05-14T02:35:22.135Z,5.17
2018-05-14T02:37:49.900Z,5.10
2018-05-14T02:40:17.616Z,5.30
2018-05-14T02:42:45.160Z,5.57
2018-05-14T02:45:12.741Z,5.73
2018-05-14T02:47:41.000Z,5.07
2018-05-14T02:50:08.473Z,4.27
2018-05-14T02:52:36.996Z,5.47
2018-05-14T02:55:04.760Z,5.30
2018-05-14T02:57:32.241Z,4.97
2018-05-14T02:59:59.737Z,4.70
2018-05-14T03:02:28.260Z,6.37
2018-05-14T03:04:56.078Z,4.73
2018-05-14T03:07:24.632Z,5.53
2018-05-14T03:09:52.596Z,5.40
2018-05-14T03:12:21.628Z,6.10
2018-05-14T03:14:49.878Z,5.03
2018-05-14T03:17:17.383Z,5.60
2018-05-14T03:19:44.859Z,6.20
2018-05-14T03:22:12.619Z,4.70
2018-05-14T03:24:40.384Z,6.30
2018-05-14T03:27:07.870Z,4.20
2018-05-14T03:29:35.704Z,4.17
2018-05-14T03:32:03.187Z,6.23
2018-05-14T03:34:30.660Z,5.17
2018-05-14T03:36:58.157Z,5.83
2018-05-14T03:39:25.632Z,5.50
2018-05-14T03:41:53.152Z,5.37
2018-05-14T03:44:21.399Z,6.60
2018-05-14T03:46:48.883Z,5.67
2018-05-14T03:49:17.163Z,5.83
2018-05-14T03:51:45.432Z,5.40
2018-05-14T03:54:13.813Z,6.10
2018-05-14T03:56:42.064Z,5.90
2018-05-14T03:59:22.131Z,6.17
2018-05-14T04:15:18.652Z,4.10
2018-05-14T04:17:46.171Z,5.90
2018-05-14T04:20:13.869Z,6.17
2018-05-14T04:22:41.368Z,5.60
2018-05-14T04:25:08.849Z,4.57
2018-05-14T04:27:36.340Z,4.37
2018-05-14T04:30:04.039Z,3.87
2018-05-14T04:32:31.539Z,4.30
2018-05-14T04:34:59.016Z,4.53
2018-05-14T04:37:26.742Z,5.60
2018-05-14T04:39:54.260Z,3.93
2018-05-14T04:42:22.780Z,5.10
2018-05-14T04:44:50.438Z,3.97
2018-05-14T04:47:17.924Z,5.40
2018-05-14T04:49:45.401Z,4.13
2018-05-14T04:52:12.897Z,5.20
2018-05-14T04:54:40.676Z,5.00
2018-05-14T04:57:08.168Z,5.27
2018-05-14T04:59:35.896Z,4.83
2018-05-14T05:02:03.390Z,5.87
2018-05-14T05:04:30.969Z,5.03
2018-05-14T05:06:59.224Z,6.07
2018-05-14T05:09:26.716Z,6.27
2018-05-14T05:11:54.955Z,5.63
2018-05-14T05:14:22.452Z,5.63
2018-05-14T05:16:50.960Z,6.17
2018-05-14T05:19:18.724Z,6.90
2018-05-14T05:21:46.244Z,6.47
2018-05-14T05:24:14.489Z,5.90
2018-05-14T05:26:43.039Z,5.50
2018-05-14T05:29:10.519Z,5.20
2018-05-14T05:31:38.075Z,5.00
2018-05-14T05:34:05.552Z,6.47
2018-05-14T05:36:33.811Z,3.90
2018-05-14T05:39:01.287Z,6.27
2018-05-14T05:41:29.760Z,7.43
2018-05-14T05:43:57.248Z,5.30
2018-05-14T05:46:25.763Z,6.77
2018-05-14T05:48:53.252Z,4.33
2018-05-14T05:51:21.556Z,7.30
2018-05-14T05:53:49.816Z,7.10
2018-05-14T05:56:17.296Z,6.07
2018-05-14T05:58:45.548Z,5.43
2018-05-14T06:01:13.138Z,5.77
2018-05-14T06:03:40.539Z,5.47
2018-05-14T06:06:08.036Z,6.83
2018-05-14T06:08:36.276Z,6.10
2018-05-14T06:11:04.120Z,6.40
2018-05-14T06:13:31.642Z,4.97
2018-05-14T06:15:59.893Z,5.30
2018-05-14T06:18:28.897Z,4.73
2018-05-14T06:20:57.141Z,5.10
2018-05-14T06:23:24.884Z,5.70
2018-05-14T06:25:52.404Z,4.60
2018-05-14T06:28:20.664Z,3.53
2018-05-14T06:30:48.239Z,4.73
2018-05-14T06:33:16.513Z,5.17
2018-05-14T06:35:44.051Z,5.27
2018-05-14T06:38:11.777Z,4.13
2018-05-14T06:40:39.264Z,5.30
2018-05-14T06:43:08.280Z,5.40
2018-05-14T06:45:36.540Z,4.73
2018-05-14T06:48:04.024Z,4.73
2018-05-14T06:50:32.292Z,5.93
2018-05-14T06:53:00.819Z,5.07
2018-05-14T06:55:28.304Z,5.23
2018-05-14T06:57:56.861Z,4.90
2018-05-14T07:00:24.366Z,6.37
2018-05-14T07:02:52.896Z,6.10
2018-05-14T07:05:20.407Z,4.40
2018-05-14T07:07:48.655Z,4.90
2018-05-14T07:10:16.396Z,6.00
2018-05-14T07:12:43.872Z,4.60
2018-05-14T07:15:11.576Z,5.63
2018-05-14T07:17:38.908Z,6.50
2018-05-14T07:20:07.144Z,6.07
2018-05-14T07:22:34.616Z,5.33
2018-05-14T07:25:02.112Z,5.70
2018-05-14T07:27:29.672Z,5.10
2018-05-14T07:29:57.915Z,6.40
2018-05-14T07:32:25.399Z,6.20
2018-05-14T07:34:53.639Z,5.00
2018-05-14T07:37:21.131Z,5.43
2018-05-14T07:39:49.376Z,5.20
2018-05-14T07:42:16.868Z,4.73
2018-05-14T07:44:45.392Z,4.83
2018-05-14T07:47:12.879Z,7.20
2018-05-14T07:49:40.367Z,4.70
2018-05-14T07:52:07.961Z,4.80
2018-05-14T07:54:35.483Z,5.17
2018-05-14T07:57:03.739Z,5.83
2018-05-14T07:59:31.464Z,3.63
2018-05-14T08:01:58.971Z,4.27
2018-05-14T08:04:27.255Z,4.03
2018-05-14T08:06:55.519Z,4.83
2018-05-14T08:09:23.238Z,4.63
2018-05-14T08:11:50.850Z,6.73
2018-05-14T08:14:19.016Z,3.97
2018-05-14T08:16:46.491Z,4.80
2018-05-14T08:19:14.751Z,3.57
2018-05-14T08:21:42.254Z,4.70
2018-05-14T08:24:09.743Z,4.30
2018-05-14T08:26:37.224Z,4.77
2018-05-14T08:29:04.704Z,5.23
2018-05-14T08:31:32.199Z,5.13
2018-05-14T08:33:59.700Z,5.27
2018-05-14T08:36:27.192Z,4.83
2018-05-14T08:38:54.672Z,6.17
2018-05-14T08:41:22.170Z,5.60
2018-05-14T08:43:50.703Z,6.17
2018-05-14T08:46:18.215Z,5.07
2018-05-14T08:48:46.472Z,5.13
2018-05-14T08:51:13.951Z,6.60
2018-05-14T08:53:42.215Z,5.80
2018-05-14T08:56:09.788Z,8.50
2018-05-14T08:58:38.032Z,6.37
2018-05-14T09:01:05.532Z,7.17
2018-05-14T09:03:33.009Z,6.50
2018-05-14T09:06:01.600Z,6.80
2018-05-14T09:08:29.368Z,6.10
2018-05-14T09:10:56.875Z,6.50
2018-05-14T09:13:25.404Z,8.20
2018-05-14T09:15:52.889Z,8.10
2018-05-14T09:18:20.380Z,7.30
2018-05-14T09:20:48.628Z,7.30
2018-05-14T09:23:16.212Z,6.63
2018-05-14T09:25:44.459Z,8.13
2018-05-14T09:28:12.763Z,10.27
2018-05-14T09:30:41.039Z,8.03
2018-05-14T09:33:09.315Z,9.33
2018-05-14T09:35:37.592Z,9.90
2018-05-14T09:38:05.840Z,8.87
2018-05-14T09:40:33.359Z,9.20
2018-05-14T09:43:00.882Z,9.63
2018-05-14T09:45:29.308Z,9.20
2018-05-14T09:47:56.787Z,8.30
2018-05-14T09:50:24.291Z,8.17
2018-05-14T09:52:51.785Z,9.60
2018-05-14T09:55:19.263Z,8.87
2018-05-14T09:57:48.268Z,9.43
2018-05-14T10:00:16.037Z,10.00
2018-05-14T10:02:43.375Z,9.17
2018-05-14T10:05:11.107Z,9.53
2018-05-14T10:07:38.611Z,9.10
2018-05-14T10:10:06.095Z,8.57
2018-05-14T10:12:33.639Z,6.83
2018-05-14T10:15:02.164Z,10.50
2018-05-14T10:17:29.932Z,11.03
2018-05-14T10:19:57.420Z,9.70
2018-05-14T10:22:24.903Z,8.50
2018-05-14T10:24:53.524Z,9.40
2018-05-14T10:27:21.004Z,9.70
2018-05-14T10:29:48.600Z,11.20
2018-05-14T10:32:16.875Z,11.43
2018-05-14T10:34:45.120Z,10.27
2018-05-14T10:37:12.632Z,11.20
2018-05-14T10:39:40.415Z,12.77
2018-05-14T10:42:08.631Z,9.20
2018-05-14T10:44:36.113Z,11.97
2018-05-14T10:47:04.732Z,11.43
2018-05-14T10:49:32.248Z,12.30
2018-05-14T10:52:00.627Z,11.70
2018-05-14T10:54:28.896Z,11.03
2018-05-14T10:56:57.144Z,11.90
2018-05-14T10:59:24.633Z,14.40
2018-05-14T11:01:52.907Z,12.07
2018-05-14T11:04:21.160Z,12.60
2018-05-14T11:06:48.655Z,11.70
2018-05-14T11:09:16.909Z,12.03
2018-05-14T11:11:44.411Z,12.97
2018-05-14T11:14:11.932Z,12.43
2018-05-14T11:16:40.608Z,14.40
2018-05-14T11:19:08.115Z,11.80
2018-05-14T11:21:35.598Z,11.73
2018-05-14T11:24:03.107Z,11.83
2018-05-14T11:26:30.585Z,9.40
2018-05-14T11:28:58.067Z,12.40
2018-05-14T11:31:25.563Z,10.70
2018-05-14T11:33:53.812Z,11.10
2018-05-14T11:36:21.416Z,10.50
2018-05-14T11:38:48.900Z,11.57
2018-05-14T11:41:16.664Z,9.57
2018-05-14T11:43:44.146Z,9.00
2018-05-14T11:46:12.260Z,8.70
2018-05-14T11:48:40.615Z,9.63
2018-05-14T11:51:08.116Z,9.57
2018-05-14T11:53:35.600Z,11.37
2018-05-14T11:56:03.348Z,11.17
2018-05-14T11:58:30.827Z,9.73
2018-05-14T12:00:58.323Z,10.83
2018-05-14T12:03:26.596Z,10.37
2018-05-14T12:05:54.855Z,10.67
2018-05-14T12:08:22.431Z,10.83
2018-05-14T12:10:50.689Z,9.87
2018-05-14T12:13:18.168Z,11.60
2018-05-14T12:15:46.436Z,10.50
2018-05-14T12:18:14.683Z,11.23
2018-05-14T12:20:42.180Z,11.23
2018-05-14T12:23:10.431Z,10.10
2018-05-14T12:25:38.039Z,11.70
2018-05-14T12:28:05.508Z,11.37
2018-05-14T12:30:33.024Z,12.07
2018-05-14T12:33:01.548Z,10.37
2018-05-14T12:35:29.312Z,12.83
2018-05-14T12:37:56.811Z,14.03
2018-05-14T12:40:24.387Z,11.23
2018-05-14T12:42:52.660Z,12.40
2018-05-14T12:45:20.908Z,12.67
2018-05-14T12:47:48.391Z,12.20
2018-05-14T12:50:16.656Z,13.67
2018-05-14T12:52:44.232Z,12.60
2018-05-14T12:55:12.754Z,12.87
2018-05-14T12:57:40.235Z,12.03
2018-05-14T13:00:07.742Z,12.23
2018-05-14T13:02:35.233Z,12.37
2018-05-14T13:05:02.720Z,13.50
2018-05-14T13:07:30.216Z,12.63
2018-05-14T13:09:57.700Z,11.40
2018-05-14T13:12:25.199Z,11.67
2018-05-14T13:14:52.679Z,12.33
2018-05-14T13:17:20.928Z,13.50
2018-05-14T13:19:48.428Z,13.30
2018-05-14T13:22:16.208Z,14.30
2018-05-14T13:24:43.748Z,15.40
2018-05-14T13:27:11.287Z,11.70
2018-05-14T13:29:39.811Z,13.83
2018-05-14T13:32:07.313Z,15.77
2018-05-14T13:34:35.029Z,11.90
2018-05-14T13:37:02.528Z,14.07
2018-05-14T13:39:30.013Z,12.07
2018-05-14T13:41:57.513Z,12.10
2018-05-14T13:44:25.059Z,15.13
2018-05-14T13:46:53.284Z,15.00
2018-05-14T13:49:21.568Z,13.00
2018-05-14T13:51:49.824Z,14.70
2018-05-14T13:54:17.328Z,12.80
2018-05-14T13:56:44.864Z,14.50
2018-05-14T13:59:13.131Z,13.77
2018-05-14T14:01:41.416Z,15.07
2018-05-14T14:04:09.667Z,13.27
2018-05-14T14:06:37.165Z,13.83
2018-05-14T14:09:04.653Z,12.63
2018-05-14T14:11:32.257Z,14.80
2018-05-14T14:14:00.424Z,12.10
2018-05-14T14:16:28.348Z,13.83
2018-05-14T14:18:55.837Z,15.07
2018-05-14T14:21:23.319Z,14.90
2018-05-14T14:23:51.728Z,13.90
2018-05-14T14:26:19.872Z,12.27
2018-05-14T14:28:48.135Z,11.20
2018-05-14T14:31:15.619Z,11.13
2018-05-14T14:33:43.125Z,11.30
2018-05-14T14:36:10.649Z,12.10
2018-05-14T14:38:38.896Z,11.33
2018-05-14T14:41:07.160Z,12.87
2018-05-14T14:43:35.446Z,13.43
2018-05-14T14:46:03.728Z,11.33
2018-05-14T14:48:31.976Z,12.90
2018-05-14T14:50:59.479Z,13.20
2018-05-14T14:53:27.049Z,12.60
2018-05-14T14:55:54.520Z,13.00
2018-05-14T14:58:22.099Z,15.40
2018-05-14T15:00:50.863Z,12.87
2018-05-14T15:03:18.476Z,11.93
2018-05-14T15:05:46.724Z,12.97
2018-05-14T15:08:14.233Z,13.47
2018-05-14T15:10:42.021Z,11.17
2018-05-14T15:13:09.536Z,13.70
2018-05-14T15:15:38.059Z,13.23
2018-05-14T15:18:06.334Z,14.33
2018-05-14T15:20:33.833Z,12.90
2018-05-14T15:23:01.409Z,12.20
2018-05-14T15:25:29.680Z,14.73
2018-05-14T15:27:58.211Z,13.10
2018-05-14T15:30:25.716Z,12.13
2018-05-14T15:32:53.510Z,13.40
2018-05-14T15:35:21.297Z,12.67
2018-05-14T15:37:49.059Z,13.50
2018-05-14T15:40:16.558Z,10.83
2018-05-14T15:42:44.831Z,12.67
2018-05-14T15:45:12.316Z,13.47
2018-05-14T15:47:40.584Z,10.40
2018-05-14T15:50:08.866Z,12.20
2018-05-14T15:52:36.428Z,11.60
2018-05-14T15:55:03.931Z,12.33
2018-05-14T15:57:31.539Z,12.20
2018-05-14T15:59:59.816Z,12.13
2018-05-14T16:02:28.064Z,13.47
2018-05-14T16:04:56.445Z,13.30
2018-05-14T16:07:23.934Z,11.40
2018-05-14T16:09:52.208Z,12.57
2018-05-14T16:12:20.722Z,9.30
2018-05-14T16:14:48.896Z,10.57
2018-05-14T16:17:16.400Z,10.90
2018-05-14T16:19:44.652Z,12.80
2018-05-14T16:22:12.150Z,12.47
2018-05-14T16:24:40.669Z,10.03
2018-05-14T16:27:08.168Z,9.70
2018-05-14T16:29:35.652Z,9.13
2018-05-14T16:32:03.155Z,12.03
2018-05-14T16:34:30.640Z,10.00
2018-05-14T16:36:58.204Z,8.70
2018-05-14T16:39:25.791Z,11.77
2018-05-14T16:41:53.337Z,10.40
2018-05-14T16:44:21.036Z,11.90
2018-05-14T16:46:48.551Z,9.63
2018-05-14T16:49:16.935Z,12.93
2018-05-14T16:51:45.188Z,11.60
2018-05-14T16:54:13.016Z,11.40
2018-05-14T16:56:40.539Z,10.60
2018-05-14T16:59:08.807Z,11.93
2018-05-14T17:01:37.260Z,13.30
2018-05-14T17:04:04.835Z,12.50
2018-05-14T17:06:32.256Z,13.07
2018-05-14T17:08:59.743Z,10.87
2018-05-14T17:11:27.316Z,13.83
2018-05-14T17:13:55.631Z,12.90
2018-05-14T17:16:23.071Z,13.17
2018-05-14T17:18:50.856Z,12.70
2018-05-14T17:21:18.375Z,13.80
2018-05-14T17:23:46.684Z,14.70
2018-05-14T17:26:14.172Z,15.47
2018-05-14T17:28:41.672Z,12.63
2018-05-14T17:31:09.988Z,15.50
2018-05-14T17:33:37.492Z,15.90
2018-05-14T17:36:05.775Z,14.47
2018-05-14T17:38:34.299Z,12.83
2018-05-14T17:41:01.803Z,14.50
2018-05-14T17:43:29.411Z,13.47
2018-05-14T17:45:56.932Z,13.20
2018-05-14T17:48:25.456Z,14.70
2018-05-14T17:50:52.962Z,15.20
2018-05-14T17:53:20.452Z,13.60
2018-05-14T17:55:47.975Z,13.40
2018-05-14T17:58:15.520Z,12.57
2018-05-14T18:00:43.012Z,18.07
2018-05-14T18:03:11.275Z,17.17
2018-05-14T18:05:39.579Z,12.90
2018-05-14T18:08:07.111Z,16.50
2018-05-14T18:10:35.423Z,11.73
2018-05-14T18:13:02.860Z,14.20
2018-05-14T18:15:31.184Z,15.83
2018-05-14T18:17:58.964Z,14.17
2018-05-14T18:20:26.308Z,14.07
2018-05-14T18:22:53.792Z,12.40
2018-05-14T18:25:26.864Z,17.63
2018-05-14T18:28:00.145Z,16.97
2018-05-14T18:30:28.431Z,16.53
2018-05-14T18:33:01.685Z,15.50
2018-05-14T18:35:35.054Z,13.00
2018-05-14T18:38:03.341Z,15.30
2018-05-14T18:40:30.954Z,13.67
2018-05-14T18:42:58.540Z,14.70
2018-05-14T18:45:26.789Z,12.70
2018-05-14T18:47:54.295Z,13.17
2018-05-14T18:50:21.869Z,13.23
2018-05-14T18:52:49.377Z,14.90
2018-05-14T18:55:16.863Z,15.97
2018-05-14T18:57:44.356Z,15.07
2018-05-14T19:00:11.868Z,13.70
2018-05-14T19:02:40.136Z,13.03
2018-05-14T19:05:08.404Z,15.40
2018-05-14T19:07:35.892Z,13.33
2018-05-14T19:10:03.397Z,18.47
2018-05-14T19:12:30.927Z,14.83
2018-05-14T19:15:04.185Z,12.77
2018-05-14T19:17:38.549Z,14.63
2018-05-14T19:20:06.056Z,16.13
2018-05-14T19:22:39.942Z,13.73
2018-05-14T19:25:07.531Z,16.07
2018-05-14T19:27:35.800Z,15.47
2018-05-14T19:30:04.075Z,14.67
2018-05-14T19:32:32.340Z,14.13
2018-05-14T19:35:05.688Z,15.33
2018-05-14T19:37:33.188Z,15.50
2018-05-14T19:40:06.540Z,15.77
2018-05-14T19:42:34.304Z,13.63
2018-05-14T19:45:01.820Z,14.30
2018-05-14T19:47:30.095Z,14.17
2018-05-14T19:49:58.344Z,16.43
2018-05-14T19:52:25.855Z,14.50
2018-05-14T19:54:53.349Z,15.80
2018-05-14T19:57:21.092Z,14.47
2018-05-14T19:59:48.615Z,16.00
2018-05-14T20:02:16.870Z,16.47
2018-05-14T20:04:45.148Z,15.43
2018-05-14T20:07:12.628Z,17.40
2018-05-14T20:09:40.174Z,17.80
2018-05-14T20:12:08.435Z,16.43
2018-05-14T20:14:36.848Z,15.77
2018-05-14T20:17:04.391Z,18.07
2018-05-14T20:19:32.912Z,16.27
2018-05-14T20:22:00.432Z,16.90
2018-05-14T20:24:28.684Z,17.27
2018-05-14T20:26:56.188Z,16.57
2018-05-14T20:29:23.721Z,13.77
2018-05-14T20:31:52.100Z,15.40
2018-05-14T20:34:20.620Z,18.87
2018-05-14T20:36:48.100Z,19.20
2018-05-14T20:39:15.599Z,15.03
2018-05-14T20:41:43.850Z,16.90
2018-05-14T20:44:11.352Z,17.40
2018-05-14T20:46:38.883Z,16.77
2018-05-14T20:49:07.164Z,14.90
2018-05-14T20:51:35.684Z,15.17
2018-05-14T20:54:03.447Z,15.40
2018-05-14T20:56:30.951Z,15.77
2018-05-14T20:58:58.520Z,16.33
2018-05-14T21:01:26.901Z,16.80
2018-05-14T21:03:55.164Z,14.97
2018-05-14T21:06:22.675Z,16.87
2018-05-14T21:08:50.157Z,13.70
2018-05-14T21:11:17.634Z,15.87
2018-05-14T21:13:45.455Z,14.20
2018-05-14T21:16:13.220Z,15.57
2018-05-14T21:18:40.740Z,15.23
2018-05-14T21:21:09.256Z,17.00
2018-05-14T21:23:36.991Z,16.17
2018-05-14T21:26:04.483Z,17.57
2018-05-14T21:28:31.965Z,18.80
2018-05-14T21:30:59.463Z,13.67
2018-05-14T21:33:27.977Z,14.47
2018-05-14T21:35:55.472Z,14.57
2018-05-14T21:38:23.052Z,15.00
2018-05-14T21:40:51.319Z,12.53
2018-05-14T21:43:19.848Z,14.73
2018-05-14T21:45:47.612Z,15.73
2018-05-14T21:48:15.108Z,15.30
2018-05-14T21:50:42.592Z,15.40
2018-05-14T21:53:11.080Z,11.97
2018-05-14T21:55:38.628Z,14.13
2018-05-14T21:58:06.895Z,16.03
2018-05-14T22:00:35.295Z,14.23
2018-05-14T22:03:02.795Z,13.10
2018-05-14T22:05:30.280Z,12.30
2018-05-14T22:07:57.780Z,14.80
2018-05-14T22:10:25.420Z,15.63
2018-05-14T22:12:52.971Z,12.67
2018-05-14T22:15:21.361Z,12.97
2018-05-14T22:17:48.864Z,13.47
2018-05-14T22:20:16.360Z,13.10
2018-05-14T22:22:44.992Z,12.43
2018-05-14T22:25:12.757Z,12.10
2018-05-14T22:27:40.240Z,14.97
2018-05-14T22:30:08.455Z,14.30
2018-05-14T22:32:36.831Z,15.07
2018-05-14T22:35:05.092Z,10.20
2018-05-14T22:37:32.629Z,13.83
2018-05-14T22:40:00.094Z,12.43
2018-05-14T22:42:27.579Z,13.20
2018-05-14T22:44:55.840Z,15.30
2018-05-14T22:47:23.408Z,11.17
2018-05-14T22:49:51.667Z,13.43
2018-05-14T22:52:19.168Z,11.23
2018-05-14T22:54:46.667Z,12.00
2018-05-14T22:57:15.013Z,14.50
2018-05-14T22:59:42.685Z,13.80
2018-05-14T23:02:10.171Z,12.50
2018-05-14T23:04:37.755Z,12.70
2018-05-14T23:07:06.020Z,11.37
2018-05-14T23:09:33.504Z,13.17
2018-05-14T23:12:01.004Z,11.33
2018-05-14T23:14:28.488Z,11.87
2018-05-14T23:16:56.751Z,13.40
2018-05-14T23:19:25.351Z,11.53
2018-05-14T23:21:52.795Z,12.07
2018-05-14T23:24:20.316Z,10.57
2018-05-14T23:26:47.799Z,14.50
2018-05-14T23:29:15.300Z,10.77
2018-05-14T23:31:43.671Z,12.37
2018-05-14T23:34:12.192Z,11.17
2018-05-14T23:36:39.691Z,11.50
2018-05-14T23:39:07.172Z,12.57
2018-05-14T23:41:35.432Z,10.53
2018-05-14T23:44:02.924Z,10.47
2018-05-14T23:46:30.428Z,10.40
2018-05-14T23:48:57.915Z,9.97
2018-05-14T23:51:26.435Z,10.73
2018-05-14T23:53:53.960Z,13.83
2018-05-14T23:56:22.204Z,8.83
2018-05-14T23:58:49.709Z,10.37
